sensor_id;sensor_type;location;lat;lon;timestamp;P1;durP1;ratioP1;P2;durP2;ratioP2
28822;SDS011;15961;54.678;9.110;2022-10-17T00:01:28;16.63;;;3.10;;
28822;SDS011;15961;54.678;9.110;2022-10-17T00:03:54;13.63;;;2.50;;
28822;SDS011;15961;54.678;9.110;2022-10-17T00:06:19;15.93;;;3.65;;
28822;SDS011;15961;54.678;9.110;2022-10-17T00:08:45;18.95;;;3.28;;
28822;SDS011;15961;54.678;9.110;2022-10-17T00:11:15;12.57;;;2.50;;
28822;SDS011;15961;54.678;9.110;2022-10-17T00:13:46;16.67;;;2.95;;
28822;SDS011;15961;54.678;9.110;2022-10-17T00:16:14;11.77;;;3.05;;
28822;SDS011;15961;54.678;9.110;2022-10-17T00:18:46;7.25;;;2.00;;
28822;SDS011;15961;54.678;9.110;2022-10-17T00:21:15;14.20;;;3.33;;
28822;SDS011;15961;54.678;9.110;2022-10-17T00:23:42;14.45;;;3.35;;
28822;SDS011;15961;54.678;9.110;2022-10-17T00:26:08;10.93;;;1.83;;
28822;SDS011;15961;54.678;9.110;2022-10-17T00:28:33;18.60;;;3.10;;
28822;SDS011;15961;54.678;9.110;2022-10-17T00:31:00;17.38;;;3.00;;
28822;SDS011;15961;54.678;9.110;2022-10-17T00:33:29;15.57;;;2.92;;
28822;SDS011;15961;54.678;9.110;2022-10-17T00:36:28;17.23;;;4.00;;
28822;SDS011;15961;54.678;9.110;2022-10-17T00:38:49;15.00;;;2.90;;
28822;SDS011;15961;54.678;9.110;2022-10-17T00:41:22;23.38;;;3.25;;
28822;SDS011;15961;54.678;9.110;2022-10-17T00:43:57;19.75;;;3.55;;
28822;SDS011;15961;54.678;9.110;2022-10-17T00:46:26;11.40;;;2.50;;
28822;SDS011;15961;54.678;9.110;2022-10-17T00:48:55;13.55;;;2.78;;
28822;SDS011;15961;54.678;9.110;2022-10-17T00:51:24;16.40;;;3.05;;
28822;SDS011;15961;54.678;9.110;2022-10-17T00:54:02;11.20;;;2.90;;
28822;SDS011;15961;54.678;9.110;2022-10-17T00:56:29;16.95;;;3.28;;
28822;SDS011;15961;54.678;9.110;2022-10-17T00:58:55;17.48;;;3.63;;
28822;SDS011;15961;54.678;9.110;2022-10-17T01:01:21;15.88;;;2.90;;
28822;SDS011;15961;54.678;9.110;2022-10-17T01:03:47;7.70;;;2.83;;
28822;SDS011;15961;54.678;9.110;2022-10-17T01:06:12;12.23;;;2.95;;
28822;SDS011;15961;54.678;9.110;2022-10-17T01:08:38;10.05;;;2.83;;
28822;SDS011;15961;54.678;9.110;2022-10-17T01:31:11;12.68;;;2.88;;
28822;SDS011;15961;54.678;9.110;2022-10-17T01:38:49;11.80;;;3.55;;
28822;SDS011;15961;54.678;9.110;2022-10-17T01:41:38;16.80;;;3.70;;
28822;SDS011;15961;54.678;9.110;2022-10-17T01:46:42;16.35;;;3.88;;
28822;SDS011;15961;54.678;9.110;2022-10-17T01:49:14;20.48;;;4.82;;
28822;SDS011;15961;54.678;9.110;2022-10-17T01:51:46;29.88;;;5.25;;
28822;SDS011;15961;54.678;9.110;2022-10-17T01:54:24;19.88;;;4.90;;
28822;SDS011;15961;54.678;9.110;2022-10-17T01:57:28;13.65;;;4.63;;
28822;SDS011;15961;54.678;9.110;2022-10-17T01:59:58;18.02;;;4.38;;
28822;SDS011;15961;54.678;9.110;2022-10-17T02:02:26;23.60;;;4.55;;
28822;SDS011;15961;54.678;9.110;2022-10-17T02:04:53;22.70;;;4.90;;
28822;SDS011;15961;54.678;9.110;2022-10-17T02:07:21;20.70;;;5.47;;
28822;SDS011;15961;54.678;9.110;2022-10-17T02:09:46;18.92;;;3.80;;
28822;SDS011;15961;54.678;9.110;2022-10-17T02:17:36;15.55;;;4.18;;
28822;SDS011;15961;54.678;9.110;2022-10-17T02:20:16;14.52;;;3.97;;
28822;SDS011;15961;54.678;9.110;2022-10-17T02:25:44;21.60;;;4.10;;
28822;SDS011;15961;54.678;9.110;2022-10-17T02:28:19;14.30;;;4.18;;
28822;SDS011;15961;54.678;9.110;2022-10-17T02:33:15;21.38;;;5.03;;
28822;SDS011;15961;54.678;9.110;2022-10-17T02:35:49;25.25;;;5.00;;
28822;SDS011;15961;54.678;9.110;2022-10-17T02:38:17;18.48;;;4.35;;
28822;SDS011;15961;54.678;9.110;2022-10-17T02:40:45;13.27;;;4.65;;
28822;SDS011;15961;54.678;9.110;2022-10-17T02:43:13;22.52;;;5.25;;
28822;SDS011;15961;54.678;9.110;2022-10-17T02:45:38;18.33;;;4.43;;
28822;SDS011;15961;54.678;9.110;2022-10-17T02:48:07;16.42;;;4.68;;
28822;SDS011;15961;54.678;9.110;2022-10-17T02:53:48;14.68;;;4.13;;
28822;SDS011;15961;54.678;9.110;2022-10-17T02:56:21;19.25;;;4.90;;
28822;SDS011;15961;54.678;9.110;2022-10-17T02:58:50;17.45;;;4.97;;
28822;SDS011;15961;54.678;9.110;2022-10-17T03:01:20;14.80;;;5.13;;
28822;SDS011;15961;54.678;9.110;2022-10-17T03:03:45;20.23;;;4.80;;
28822;SDS011;15961;54.678;9.110;2022-10-17T03:06:11;18.88;;;4.82;;
28822;SDS011;15961;54.678;9.110;2022-10-17T03:08:37;23.33;;;4.75;;
28822;SDS011;15961;54.678;9.110;2022-10-17T03:11:02;12.18;;;3.95;;
28822;SDS011;15961;54.678;9.110;2022-10-17T03:13:28;17.02;;;4.80;;
28822;SDS011;15961;54.678;9.110;2022-10-17T03:15:55;22.63;;;4.32;;
28822;SDS011;15961;54.678;9.110;2022-10-17T03:18:21;19.10;;;4.78;;
28822;SDS011;15961;54.678;9.110;2022-10-17T03:20:47;17.58;;;5.10;;
28822;SDS011;15961;54.678;9.110;2022-10-17T03:23:12;15.00;;;4.25;;
28822;SDS011;15961;54.678;9.110;2022-10-17T03:25:38;19.80;;;4.30;;
28822;SDS011;15961;54.678;9.110;2022-10-17T03:28:04;13.60;;;3.85;;
28822;SDS011;15961;54.678;9.110;2022-10-17T03:30:29;20.17;;;4.20;;
28822;SDS011;15961;54.678;9.110;2022-10-17T03:32:58;14.82;;;3.70;;
28822;SDS011;15961;54.678;9.110;2022-10-17T03:35:25;25.73;;;4.15;;
28822;SDS011;15961;54.678;9.110;2022-10-17T03:37:51;17.60;;;3.90;;
28822;SDS011;15961;54.678;9.110;2022-10-17T03:40:18;19.58;;;3.95;;
28822;SDS011;15961;54.678;9.110;2022-10-17T03:42:44;29.80;;;4.82;;
28822;SDS011;15961;54.678;9.110;2022-10-17T03:45:09;24.63;;;3.72;;
28822;SDS011;15961;54.678;9.110;2022-10-17T03:47:35;27.52;;;4.90;;
28822;SDS011;15961;54.678;9.110;2022-10-17T03:50:00;24.10;;;5.07;;
28822;SDS011;15961;54.678;9.110;2022-10-17T03:52:26;29.23;;;4.60;;
28822;SDS011;15961;54.678;9.110;2022-10-17T03:54:51;32.40;;;5.22;;
28822;SDS011;15961;54.678;9.110;2022-10-17T03:57:17;26.45;;;4.43;;
28822;SDS011;15961;54.678;9.110;2022-10-17T03:59:43;22.38;;;3.78;;
28822;SDS011;15961;54.678;9.110;2022-10-17T04:02:09;23.77;;;4.47;;
28822;SDS011;15961;54.678;9.110;2022-10-17T04:04:34;26.55;;;3.60;;
28822;SDS011;15961;54.678;9.110;2022-10-17T04:07:00;18.60;;;3.28;;
28822;SDS011;15961;54.678;9.110;2022-10-17T04:09:25;19.88;;;4.00;;
28822;SDS011;15961;54.678;9.110;2022-10-17T04:11:51;16.92;;;3.47;;
28822;SDS011;15961;54.678;9.110;2022-10-17T04:14:17;17.17;;;4.13;;
28822;SDS011;15961;54.678;9.110;2022-10-17T04:16:42;20.65;;;4.05;;
28822;SDS011;15961;54.678;9.110;2022-10-17T04:19:09;29.05;;;4.20;;
28822;SDS011;15961;54.678;9.110;2022-10-17T04:21:37;23.48;;;4.70;;
28822;SDS011;15961;54.678;9.110;2022-10-17T04:24:02;31.75;;;4.40;;
28822;SDS011;15961;54.678;9.110;2022-10-17T04:26:28;21.27;;;5.82;;
28822;SDS011;15961;54.678;9.110;2022-10-17T04:28:54;27.48;;;5.13;;
28822;SDS011;15961;54.678;9.110;2022-10-17T04:31:19;27.67;;;4.10;;
28822;SDS011;15961;54.678;9.110;2022-10-17T04:33:45;23.85;;;4.88;;
28822;SDS011;15961;54.678;9.110;2022-10-17T04:36:14;22.48;;;4.80;;
28822;SDS011;15961;54.678;9.110;2022-10-17T04:38:41;42.30;;;5.82;;
28822;SDS011;15961;54.678;9.110;2022-10-17T04:41:09;17.73;;;4.07;;
28822;SDS011;15961;54.678;9.110;2022-10-17T04:43:37;22.20;;;3.67;;
28822;SDS011;15961;54.678;9.110;2022-10-17T04:46:07;31.75;;;5.13;;
28822;SDS011;15961;54.678;9.110;2022-10-17T04:48:36;26.05;;;5.90;;
28822;SDS011;15961;54.678;9.110;2022-10-17T04:51:06;18.35;;;4.20;;
28822;SDS011;15961;54.678;9.110;2022-10-17T04:53:35;14.35;;;4.25;;
28822;SDS011;15961;54.678;9.110;2022-10-17T04:56:06;22.63;;;4.63;;
28822;SDS011;15961;54.678;9.110;2022-10-17T04:58:33;23.73;;;4.28;;
28822;SDS011;15961;54.678;9.110;2022-10-17T05:01:02;28.98;;;5.07;;
28822;SDS011;15961;54.678;9.110;2022-10-17T05:03:29;18.80;;;4.18;;
28822;SDS011;15961;54.678;9.110;2022-10-17T05:05:54;30.80;;;3.80;;
28822;SDS011;15961;54.678;9.110;2022-10-17T05:08:20;19.40;;;4.45;;
28822;SDS011;15961;54.678;9.110;2022-10-17T05:10:45;19.08;;;3.50;;
28822;SDS011;15961;54.678;9.110;2022-10-17T05:13:11;23.17;;;4.20;;
28822;SDS011;15961;54.678;9.110;2022-10-17T05:15:37;21.30;;;4.03;;
28822;SDS011;15961;54.678;9.110;2022-10-17T05:18:04;19.05;;;3.58;;
28822;SDS011;15961;54.678;9.110;2022-10-17T05:20:30;12.15;;;3.63;;
28822;SDS011;15961;54.678;9.110;2022-10-17T05:22:57;28.98;;;4.40;;
28822;SDS011;15961;54.678;9.110;2022-10-17T05:25:23;18.17;;;3.60;;
28822;SDS011;15961;54.678;9.110;2022-10-17T05:27:49;26.63;;;4.57;;
28822;SDS011;15961;54.678;9.110;2022-10-17T05:30:14;21.85;;;4.63;;
28822;SDS011;15961;54.678;9.110;2022-10-17T05:32:40;8.80;;;4.00;;
28822;SDS011;15961;54.678;9.110;2022-10-17T05:35:05;18.67;;;4.70;;
28822;SDS011;15961;54.678;9.110;2022-10-17T05:37:31;18.20;;;3.60;;
28822;SDS011;15961;54.678;9.110;2022-10-17T05:39:57;24.45;;;3.78;;
28822;SDS011;15961;54.678;9.110;2022-10-17T05:42:22;20.45;;;5.35;;
28822;SDS011;15961;54.678;9.110;2022-10-17T05:44:48;18.35;;;4.40;;
28822;SDS011;15961;54.678;9.110;2022-10-17T05:47:14;21.23;;;4.60;;
28822;SDS011;15961;54.678;9.110;2022-10-17T05:49:39;23.25;;;4.65;;
28822;SDS011;15961;54.678;9.110;2022-10-17T05:52:05;28.95;;;4.57;;
28822;SDS011;15961;54.678;9.110;2022-10-17T05:54:31;23.98;;;4.32;;
28822;SDS011;15961;54.678;9.110;2022-10-17T05:56:56;27.55;;;4.32;;
28822;SDS011;15961;54.678;9.110;2022-10-17T05:59:23;12.38;;;4.10;;
28822;SDS011;15961;54.678;9.110;2022-10-17T06:01:49;30.98;;;4.35;;
28822;SDS011;15961;54.678;9.110;2022-10-17T06:04:15;28.35;;;3.92;;
28822;SDS011;15961;54.678;9.110;2022-10-17T06:06:41;18.05;;;3.53;;
28822;SDS011;15961;54.678;9.110;2022-10-17T06:09:07;25.35;;;4.32;;
28822;SDS011;15961;54.678;9.110;2022-10-17T06:11:33;34.17;;;5.00;;
28822;SDS011;15961;54.678;9.110;2022-10-17T06:13:59;18.50;;;4.05;;
28822;SDS011;15961;54.678;9.110;2022-10-17T06:16:24;27.45;;;4.45;;
28822;SDS011;15961;54.678;9.110;2022-10-17T06:18:50;23.02;;;3.92;;
28822;SDS011;15961;54.678;9.110;2022-10-17T06:21:16;19.95;;;3.97;;
28822;SDS011;15961;54.678;9.110;2022-10-17T06:23:45;20.90;;;4.88;;
28822;SDS011;15961;54.678;9.110;2022-10-17T06:26:11;19.45;;;3.97;;
28822;SDS011;15961;54.678;9.110;2022-10-17T06:28:37;20.55;;;4.97;;
28822;SDS011;15961;54.678;9.110;2022-10-17T06:31:06;16.52;;;4.68;;
28822;SDS011;15961;54.678;9.110;2022-10-17T06:33:33;28.92;;;4.75;;
28822;SDS011;15961;54.678;9.110;2022-10-17T06:35:59;23.88;;;4.40;;
28822;SDS011;15961;54.678;9.110;2022-10-17T06:38:25;21.60;;;4.60;;
28822;SDS011;15961;54.678;9.110;2022-10-17T06:40:51;18.63;;;5.18;;
28822;SDS011;15961;54.678;9.110;2022-10-17T06:43:18;16.85;;;5.35;;
28822;SDS011;15961;54.678;9.110;2022-10-17T06:45:47;13.20;;;3.78;;
28822;SDS011;15961;54.678;9.110;2022-10-17T06:48:13;11.38;;;4.10;;
28822;SDS011;15961;54.678;9.110;2022-10-17T06:50:38;20.00;;;5.65;;
28822;SDS011;15961;54.678;9.110;2022-10-17T06:53:04;10.70;;;4.18;;
28822;SDS011;15961;54.678;9.110;2022-10-17T06:55:30;14.30;;;4.22;;
28822;SDS011;15961;54.678;9.110;2022-10-17T06:57:56;11.73;;;4.22;;
28822;SDS011;15961;54.678;9.110;2022-10-17T07:00:22;13.20;;;4.10;;
28822;SDS011;15961;54.678;9.110;2022-10-17T07:02:50;13.68;;;4.07;;
28822;SDS011;15961;54.678;9.110;2022-10-17T07:05:16;14.70;;;4.10;;
28822;SDS011;15961;54.678;9.110;2022-10-17T07:07:43;7.90;;;3.50;;
28822;SDS011;15961;54.678;9.110;2022-10-17T07:10:09;12.27;;;3.45;;
28822;SDS011;15961;54.678;9.110;2022-10-17T07:12:34;20.52;;;3.90;;
28822;SDS011;15961;54.678;9.110;2022-10-17T07:15:00;6.53;;;3.10;;
28822;SDS011;15961;54.678;9.110;2022-10-17T07:17:28;11.13;;;3.40;;
28822;SDS011;15961;54.678;9.110;2022-10-17T07:19:53;12.57;;;3.20;;
28822;SDS011;15961;54.678;9.110;2022-10-17T07:22:19;14.07;;;3.17;;
28822;SDS011;15961;54.678;9.110;2022-10-17T07:24:44;12.27;;;3.15;;
28822;SDS011;15961;54.678;9.110;2022-10-17T07:27:10;14.98;;;3.38;;
28822;SDS011;15961;54.678;9.110;2022-10-17T07:29:37;11.73;;;3.15;;
28822;SDS011;15961;54.678;9.110;2022-10-17T07:32:03;5.30;;;3.47;;
28822;SDS011;15961;54.678;9.110;2022-10-17T07:34:32;6.90;;;3.30;;
28822;SDS011;15961;54.678;9.110;2022-10-17T07:36:58;12.75;;;4.03;;
28822;SDS011;15961;54.678;9.110;2022-10-17T07:39:24;17.00;;;3.17;;
28822;SDS011;15961;54.678;9.110;2022-10-17T07:41:49;8.32;;;3.25;;
28822;SDS011;15961;54.678;9.110;2022-10-17T07:44:15;9.18;;;3.33;;
28822;SDS011;15961;54.678;9.110;2022-10-17T07:46:41;12.13;;;2.80;;
28822;SDS011;15961;54.678;9.110;2022-10-17T07:49:06;13.23;;;3.20;;
28822;SDS011;15961;54.678;9.110;2022-10-17T07:51:32;9.23;;;2.65;;
28822;SDS011;15961;54.678;9.110;2022-10-17T07:53:58;7.68;;;3.38;;
28822;SDS011;15961;54.678;9.110;2022-10-17T07:56:23;9.82;;;2.90;;
28822;SDS011;15961;54.678;9.110;2022-10-17T07:58:49;9.82;;;2.75;;
28822;SDS011;15961;54.678;9.110;2022-10-17T08:01:16;10.82;;;2.83;;
28822;SDS011;15961;54.678;9.110;2022-10-17T08:03:45;9.68;;;3.42;;
28822;SDS011;15961;54.678;9.110;2022-10-17T08:06:14;10.47;;;2.87;;
28822;SDS011;15961;54.678;9.110;2022-10-17T08:08:40;8.00;;;3.10;;
28822;SDS011;15961;54.678;9.110;2022-10-17T08:11:06;16.60;;;3.13;;
28822;SDS011;15961;54.678;9.110;2022-10-17T08:13:33;6.10;;;2.75;;
28822;SDS011;15961;54.678;9.110;2022-10-17T08:16:03;6.38;;;2.75;;
28822;SDS011;15961;54.678;9.110;2022-10-17T08:18:34;7.63;;;2.55;;
28822;SDS011;15961;54.678;9.110;2022-10-17T08:21:01;8.52;;;3.55;;
28822;SDS011;15961;54.678;9.110;2022-10-17T08:23:30;11.30;;;3.25;;
28822;SDS011;15961;54.678;9.110;2022-10-17T08:25:59;8.95;;;3.10;;
28822;SDS011;15961;54.678;9.110;2022-10-17T08:28:27;5.75;;;2.60;;
28822;SDS011;15961;54.678;9.110;2022-10-17T08:31:00;5.60;;;2.42;;
28822;SDS011;15961;54.678;9.110;2022-10-17T08:33:29;11.18;;;2.95;;
28822;SDS011;15961;54.678;9.110;2022-10-17T08:35:56;7.38;;;3.10;;
28822;SDS011;15961;54.678;9.110;2022-10-17T08:38:22;14.30;;;3.05;;
28822;SDS011;15961;54.678;9.110;2022-10-17T08:40:48;8.35;;;3.17;;
28822;SDS011;15961;54.678;9.110;2022-10-17T08:46:09;13.32;;;3.80;;
28822;SDS011;15961;54.678;9.110;2022-10-17T08:48:37;13.13;;;3.42;;
28822;SDS011;15961;54.678;9.110;2022-10-17T08:51:23;14.18;;;3.47;;
28822;SDS011;15961;54.678;9.110;2022-10-17T08:54:01;10.43;;;3.08;;
28822;SDS011;15961;54.678;9.110;2022-10-17T08:56:49;5.85;;;3.40;;
28822;SDS011;15961;54.678;9.110;2022-10-17T08:59:19;13.32;;;3.50;;
28822;SDS011;15961;54.678;9.110;2022-10-17T09:04:33;8.90;;;3.78;;
28822;SDS011;15961;54.678;9.110;2022-10-17T09:15:45;7.38;;;2.92;;
28822;SDS011;15961;54.678;9.110;2022-10-17T09:18:36;11.68;;;3.25;;
28822;SDS011;15961;54.678;9.110;2022-10-17T09:21:16;10.93;;;3.60;;
28822;SDS011;15961;54.678;9.110;2022-10-17T09:23:51;7.05;;;3.55;;
28822;SDS011;15961;54.678;9.110;2022-10-17T09:26:24;10.93;;;3.58;;
28822;SDS011;15961;54.678;9.110;2022-10-17T09:28:51;4.72;;;3.17;;
28822;SDS011;15961;54.678;9.110;2022-10-17T09:31:24;9.60;;;3.75;;
28822;SDS011;15961;54.678;9.110;2022-10-17T09:34:02;6.70;;;3.50;;
28822;SDS011;15961;54.678;9.110;2022-10-17T09:36:28;4.30;;;3.25;;
28822;SDS011;15961;54.678;9.110;2022-10-17T09:38:59;5.35;;;3.28;;
28822;SDS011;15961;54.678;9.110;2022-10-17T09:41:40;10.63;;;3.00;;
28822;SDS011;15961;54.678;9.110;2022-10-17T09:44:21;9.13;;;3.85;;
28822;SDS011;15961;54.678;9.110;2022-10-17T09:49:45;4.80;;;3.08;;
28822;SDS011;15961;54.678;9.110;2022-10-17T09:52:16;5.78;;;3.30;;
28822;SDS011;15961;54.678;9.110;2022-10-17T10:00:23;10.30;;;3.95;;
28822;SDS011;15961;54.678;9.110;2022-10-17T10:03:19;16.85;;;4.47;;
28822;SDS011;15961;54.678;9.110;2022-10-17T10:06:01;8.80;;;4.30;;
28822;SDS011;15961;54.678;9.110;2022-10-17T10:08:37;10.55;;;4.10;;
28822;SDS011;15961;54.678;9.110;2022-10-17T10:11:16;9.95;;;4.70;;
28822;SDS011;15961;54.678;9.110;2022-10-17T10:13:43;9.50;;;4.50;;
28822;SDS011;15961;54.678;9.110;2022-10-17T10:16:13;12.45;;;5.18;;
28822;SDS011;15961;54.678;9.110;2022-10-17T10:18:44;11.13;;;4.22;;
28822;SDS011;15961;54.678;9.110;2022-10-17T10:21:13;14.27;;;4.32;;
28822;SDS011;15961;54.678;9.110;2022-10-17T10:23:42;6.28;;;4.28;;
28822;SDS011;15961;54.678;9.110;2022-10-17T10:31:29;9.68;;;4.80;;
28822;SDS011;15961;54.678;9.110;2022-10-17T10:34:00;21.55;;;5.32;;
28822;SDS011;15961;54.678;9.110;2022-10-17T10:39:51;8.53;;;5.20;;
28822;SDS011;15961;54.678;9.110;2022-10-17T10:42:20;10.43;;;4.97;;
28822;SDS011;15961;54.678;9.110;2022-10-17T10:44:49;11.07;;;5.25;;
28822;SDS011;15961;54.678;9.110;2022-10-17T10:47:18;10.10;;;4.85;;
28822;SDS011;15961;54.678;9.110;2022-10-17T10:49:49;13.18;;;5.72;;
28822;SDS011;15961;54.678;9.110;2022-10-17T10:52:30;13.38;;;4.70;;
28822;SDS011;15961;54.678;9.110;2022-10-17T10:55:13;9.50;;;5.95;;
28822;SDS011;15961;54.678;9.110;2022-10-17T10:57:52;12.80;;;5.75;;
28822;SDS011;15961;54.678;9.110;2022-10-17T11:00:24;10.05;;;6.13;;
28822;SDS011;15961;54.678;9.110;2022-10-17T11:03:00;15.13;;;6.32;;
28822;SDS011;15961;54.678;9.110;2022-10-17T11:08:09;24.65;;;16.95;;
28822;SDS011;15961;54.678;9.110;2022-10-17T11:10:54;13.52;;;7.72;;
28822;SDS011;15961;54.678;9.110;2022-10-17T11:14:17;21.73;;;7.97;;
28822;SDS011;15961;54.678;9.110;2022-10-17T11:16:46;16.48;;;7.75;;
28822;SDS011;15961;54.678;9.110;2022-10-17T11:19:38;10.68;;;6.95;;
28822;SDS011;15961;54.678;9.110;2022-10-17T11:22:33;14.55;;;7.38;;
28822;SDS011;15961;54.678;9.110;2022-10-17T11:25:13;18.30;;;7.53;;
28822;SDS011;15961;54.678;9.110;2022-10-17T11:27:51;12.70;;;7.63;;
28822;SDS011;15961;54.678;9.110;2022-10-17T11:30:17;21.67;;;8.98;;
28822;SDS011;15961;54.678;9.110;2022-10-17T11:32:50;12.07;;;8.52;;
28822;SDS011;15961;54.678;9.110;2022-10-17T11:35:38;16.45;;;8.55;;
28822;SDS011;15961;54.678;9.110;2022-10-17T11:38:15;20.10;;;10.32;;
28822;SDS011;15961;54.678;9.110;2022-10-17T11:40:49;16.05;;;8.60;;
28822;SDS011;15961;54.678;9.110;2022-10-17T11:43:17;10.68;;;8.45;;
28822;SDS011;15961;54.678;9.110;2022-10-17T11:45:52;16.67;;;9.55;;
28822;SDS011;15961;54.678;9.110;2022-10-17T11:48:38;16.35;;;9.75;;
28822;SDS011;15961;54.678;9.110;2022-10-17T11:51:10;22.52;;;11.10;;
28822;SDS011;15961;54.678;9.110;2022-10-17T11:53:43;23.67;;;10.75;;
28822;SDS011;15961;54.678;9.110;2022-10-17T11:56:38;16.60;;;11.05;;
28822;SDS011;15961;54.678;9.110;2022-10-17T12:01:40;15.40;;;10.57;;
28822;SDS011;15961;54.678;9.110;2022-10-17T12:04:16;22.58;;;11.60;;
28822;SDS011;15961;54.678;9.110;2022-10-17T12:15:56;29.15;;;14.90;;
28822;SDS011;15961;54.678;9.110;2022-10-17T12:18:42;32.40;;;15.07;;
28822;SDS011;15961;54.678;9.110;2022-10-17T12:21:07;29.13;;;16.15;;
28822;SDS011;15961;54.678;9.110;2022-10-17T12:23:33;27.42;;;16.45;;
28822;SDS011;15961;54.678;9.110;2022-10-17T12:26:01;22.60;;;16.00;;
28822;SDS011;15961;54.678;9.110;2022-10-17T12:28:41;28.95;;;15.57;;
28822;SDS011;15961;54.678;9.110;2022-10-17T12:31:13;37.00;;;22.42;;
28822;SDS011;15961;54.678;9.110;2022-10-17T12:33:53;26.42;;;16.75;;
28822;SDS011;15961;54.678;9.110;2022-10-17T12:39:39;25.55;;;17.58;;
28822;SDS011;15961;54.678;9.110;2022-10-17T12:46:40;40.03;;;19.15;;
28822;SDS011;15961;54.678;9.110;2022-10-17T12:49:21;41.35;;;23.65;;
28822;SDS011;15961;54.678;9.110;2022-10-17T12:55:16;37.00;;;20.00;;
28822;SDS011;15961;54.678;9.110;2022-10-17T12:57:47;43.72;;;21.88;;
28822;SDS011;15961;54.678;9.110;2022-10-17T13:00:25;32.92;;;19.52;;
28822;SDS011;15961;54.678;9.110;2022-10-17T13:05:37;38.83;;;18.60;;
28822;SDS011;15961;54.678;9.110;2022-10-17T13:08:06;37.17;;;20.35;;
28822;SDS011;15961;54.678;9.110;2022-10-17T13:10:38;35.00;;;18.45;;
28822;SDS011;15961;54.678;9.110;2022-10-17T13:15:44;41.53;;;21.00;;
28822;SDS011;15961;54.678;9.110;2022-10-17T13:18:15;31.42;;;20.55;;
28822;SDS011;15961;54.678;9.110;2022-10-17T13:20:53;41.60;;;21.17;;
28822;SDS011;15961;54.678;9.110;2022-10-17T13:23:24;44.15;;;20.63;;
28822;SDS011;15961;54.678;9.110;2022-10-17T13:26:03;33.10;;;19.77;;
28822;SDS011;15961;54.678;9.110;2022-10-17T13:28:37;43.22;;;20.30;;
28822;SDS011;15961;54.678;9.110;2022-10-17T13:31:02;38.42;;;18.75;;
28822;SDS011;15961;54.678;9.110;2022-10-17T13:36:03;36.45;;;19.58;;
28822;SDS011;15961;54.678;9.110;2022-10-17T13:38:32;43.42;;;20.10;;
28822;SDS011;15961;54.678;9.110;2022-10-17T13:41:01;42.63;;;20.52;;
28822;SDS011;15961;54.678;9.110;2022-10-17T13:43:27;38.03;;;18.73;;
28822;SDS011;15961;54.678;9.110;2022-10-17T13:45:57;37.03;;;19.00;;
28822;SDS011;15961;54.678;9.110;2022-10-17T13:48:30;41.20;;;21.40;;
28822;SDS011;15961;54.678;9.110;2022-10-17T13:50:59;42.53;;;19.83;;
28822;SDS011;15961;54.678;9.110;2022-10-17T13:59:15;38.72;;;18.13;;
28822;SDS011;15961;54.678;9.110;2022-10-17T14:01:27;41.97;;;17.30;;
28822;SDS011;15961;54.678;9.110;2022-10-17T14:03:54;40.42;;;18.35;;
28822;SDS011;15961;54.678;9.110;2022-10-17T14:06:20;36.35;;;18.02;;
28822;SDS011;15961;54.678;9.110;2022-10-17T14:14:04;39.47;;;16.10;;
28822;SDS011;15961;54.678;9.110;2022-10-17T14:16:38;37.38;;;17.42;;
28822;SDS011;15961;54.678;9.110;2022-10-17T14:19:12;46.35;;;16.73;;
28822;SDS011;15961;54.678;9.110;2022-10-17T14:21:47;39.13;;;16.77;;
28822;SDS011;15961;54.678;9.110;2022-10-17T14:24:34;39.42;;;15.85;;
28822;SDS011;15961;54.678;9.110;2022-10-17T14:26:59;35.95;;;15.88;;
28822;SDS011;15961;54.678;9.110;2022-10-17T14:29:29;33.30;;;16.00;;
28822;SDS011;15961;54.678;9.110;2022-10-17T14:31:57;41.60;;;15.20;;
28822;SDS011;15961;54.678;9.110;2022-10-17T14:34:27;32.42;;;14.63;;
28822;SDS011;15961;54.678;9.110;2022-10-17T14:36:55;37.97;;;14.95;;
28822;SDS011;15961;54.678;9.110;2022-10-17T14:39:22;33.90;;;13.73;;
28822;SDS011;15961;54.678;9.110;2022-10-17T14:41:49;43.20;;;13.95;;
28822;SDS011;15961;54.678;9.110;2022-10-17T14:46:51;39.55;;;12.65;;
28822;SDS011;15961;54.678;9.110;2022-10-17T14:49:39;37.90;;;13.57;;
28822;SDS011;15961;54.678;9.110;2022-10-17T14:52:08;32.65;;;14.32;;
28822;SDS011;15961;54.678;9.110;2022-10-17T14:54:34;36.20;;;13.25;;
28822;SDS011;15961;54.678;9.110;2022-10-17T14:57:06;43.25;;;11.48;;
28822;SDS011;15961;54.678;9.110;2022-10-17T14:59:38;36.45;;;11.65;;
28822;SDS011;15961;54.678;9.110;2022-10-17T15:02:04;33.70;;;11.52;;
28822;SDS011;15961;54.678;9.110;2022-10-17T15:04:29;30.33;;;9.90;;
28822;SDS011;15961;54.678;9.110;2022-10-17T15:06:55;17.13;;;9.15;;
28822;SDS011;15961;54.678;9.110;2022-10-17T15:09:20;42.47;;;10.68;;
28822;SDS011;15961;54.678;9.110;2022-10-17T15:11:47;28.15;;;9.68;;
28822;SDS011;15961;54.678;9.110;2022-10-17T15:14:13;38.42;;;10.23;;
28822;SDS011;15961;54.678;9.110;2022-10-17T15:16:38;29.77;;;9.57;;
28822;SDS011;15961;54.678;9.110;2022-10-17T15:19:04;37.65;;;11.35;;
28822;SDS011;15961;54.678;9.110;2022-10-17T15:21:29;36.90;;;10.35;;
28822;SDS011;15961;54.678;9.110;2022-10-17T15:23:55;28.08;;;9.23;;
28822;SDS011;15961;54.678;9.110;2022-10-17T15:26:23;21.67;;;9.65;;
28822;SDS011;15961;54.678;9.110;2022-10-17T15:28:50;38.28;;;11.02;;
28822;SDS011;15961;54.678;9.110;2022-10-17T15:31:17;34.95;;;10.43;;
28822;SDS011;15961;54.678;9.110;2022-10-17T15:33:45;34.83;;;10.60;;
28822;SDS011;15961;54.678;9.110;2022-10-17T15:36:21;30.83;;;10.30;;
28822;SDS011;15961;54.678;9.110;2022-10-17T15:38:52;32.72;;;12.15;;
28822;SDS011;15961;54.678;9.110;2022-10-17T15:41:21;31.38;;;10.98;;
28822;SDS011;15961;54.678;9.110;2022-10-17T15:43:47;36.25;;;12.27;;
28822;SDS011;15961;54.678;9.110;2022-10-17T15:46:20;28.15;;;10.95;;
28822;SDS011;15961;54.678;9.110;2022-10-17T15:48:55;32.88;;;12.55;;
28822;SDS011;15961;54.678;9.110;2022-10-17T15:51:21;27.30;;;11.25;;
28822;SDS011;15961;54.678;9.110;2022-10-17T15:53:47;23.92;;;11.77;;
28822;SDS011;15961;54.678;9.110;2022-10-17T15:56:18;27.60;;;11.52;;
28822;SDS011;15961;54.678;9.110;2022-10-17T15:58:46;32.65;;;12.73;;
28822;SDS011;15961;54.678;9.110;2022-10-17T16:01:15;29.25;;;12.45;;
28822;SDS011;15961;54.678;9.110;2022-10-17T16:03:47;29.90;;;11.93;;
28822;SDS011;15961;54.678;9.110;2022-10-17T16:06:14;36.17;;;12.60;;
28822;SDS011;15961;54.678;9.110;2022-10-17T16:08:41;38.97;;;12.75;;
28822;SDS011;15961;54.678;9.110;2022-10-17T16:11:09;28.95;;;13.23;;
28822;SDS011;15961;54.678;9.110;2022-10-17T16:13:43;37.55;;;15.77;;
28822;SDS011;15961;54.678;9.110;2022-10-17T16:16:13;44.50;;;16.60;;
28822;SDS011;15961;54.678;9.110;2022-10-17T16:18:39;41.53;;;12.77;;
28822;SDS011;15961;54.678;9.110;2022-10-17T16:21:04;35.53;;;14.57;;
28822;SDS011;15961;54.678;9.110;2022-10-17T16:23:30;35.85;;;14.43;;
28822;SDS011;15961;54.678;9.110;2022-10-17T16:25:55;35.67;;;13.90;;
28822;SDS011;15961;54.678;9.110;2022-10-17T16:28:21;45.33;;;17.73;;
28822;SDS011;15961;54.678;9.110;2022-10-17T16:30:46;36.40;;;15.30;;
28822;SDS011;15961;54.678;9.110;2022-10-17T16:33:13;63.72;;;22.83;;
28822;SDS011;15961;54.678;9.110;2022-10-17T16:35:38;43.83;;;16.27;;
28822;SDS011;15961;54.678;9.110;2022-10-17T16:38:05;37.22;;;13.82;;
28822;SDS011;15961;54.678;9.110;2022-10-17T16:40:31;38.00;;;11.40;;
28822;SDS011;15961;54.678;9.110;2022-10-17T16:42:57;63.45;;;24.17;;
28822;SDS011;15961;54.678;9.110;2022-10-17T16:45:23;43.60;;;14.63;;
28822;SDS011;15961;54.678;9.110;2022-10-17T16:47:48;41.20;;;15.25;;